• Join FlightAware (Why Join?)
  • Login
  • US Flag 
11:38PM EST


 

Airport Tracker/Info


-or-


 

Live Flight TrackerFlight Track Log ✈ F-GLZS ✈ 21-Apr-2013 ✈ LFPG / CDG - DRRN / NIM

Flight Track Log - Related Links

Times and Time Zones

All times are in EDT time to prevent confusion due to time zone crossing. See the F-GLZS flight status page for this flight to view local times or setup timezone preferences in your user account.

Time Position Orientation Groundspeed Altitude Reporting Facility
EDT Latitude Longitude Course Direction KTS MPH feet Rate Location/Type
09:56AM 48.9959 2.5594 264° West 156 180 400  Level FlightAware ADS-B
09:56AM 48.9949 2.5433 265° West 155 178 700 1,380 Climbing FlightAware ADS-B
09:56AM 48.9945 2.5368 265° West 155 178 900 1,860 Climbing FlightAware ADS-B
09:56AM 48.9940 2.5260 266° West 153 176 1,200 1,560 Climbing FlightAware ADS-B
09:56AM 48.9933 2.5090 266° West 151 174 1,600 1,320 Climbing FlightAware ADS-B
09:57AM 48.9927 2.4976 265° West 147 169 1,800 840 Climbing FlightAware ADS-B
09:57AM 48.9917 2.4814 265° West 158 182 2,000 1,140 Climbing FlightAware ADS-B
09:57AM 48.9904 2.4636 264° West 159 183 2,400 1,560 Climbing FlightAware ADS-B
09:57AM 48.9891 2.4470 263° West 156 180 2,800 1,320 Climbing FlightAware ADS-B
09:57AM 48.9886 2.4404 263° West 155 178 2,900 900 Climbing FlightAware ADS-B
09:57AM 48.9882 2.4338 265° West 160 184 3,000 1,680 Climbing FlightAware ADS-B
09:58AM 48.9876 2.4238 265° West 160 184 3,300 960 Climbing FlightAware ADS-B
09:58AM 48.9869 2.4052 267° West 173 199 3,400 180 Climbing FlightAware ADS-B
09:58AM 48.9863 2.3900 267° West 189 217 3,400  Level FlightAware ADS-B
09:58AM 48.9850 2.3658 265° West 216 249 3,400 360 Level FlightAware ADS-B
09:59AM 48.9839 2.3468 265° West 236 272 3,600 1,020 Climbing FlightAware ADS-B
09:59AM 48.9825 2.3212 265° West 250 288 3,900 1,320 Climbing FlightAware ADS-B
09:59AM 48.9814 2.2978 266° West 262 302 4,200 1,980 Climbing FlightAware ADS-B
09:59AM 48.9803 2.2700 267° West 267 307 4,800 2,880 Climbing FlightAware ADS-B
10:00AM 48.9786 2.2403 265° West 262 302 5,700 3,000 Climbing FlightAware ADS-B
10:00AM 48.9769 2.2111 265° West 262 302 6,400 2,700 Climbing FlightAware ADS-B
10:00AM 48.9753 2.1836 265° West 262 302 7,100 2,400 Climbing FlightAware ADS-B
10:00AM 48.9746 2.1764 262° West 262 302 7,200 2,220 Climbing FlightAware ADS-B
10:00AM 48.9733 2.1692 254° West 263 303 7,400 3,000 Climbing FlightAware ADS-B
10:00AM 48.9719 2.1641 248° West 264 304 7,500 1,980 Climbing FlightAware ADS-B
10:00AM 48.9702 2.1592 242° Southwest 266 306 7,600 1,980 Climbing FlightAware ADS-B
10:00AM 48.9682 2.1545 237° Southwest 266 306 7,700 1,680 Climbing FlightAware ADS-B
10:00AM 48.9659 2.1501 231° Southwest 267 307 7,800 2,520 Climbing FlightAware ADS-B
10:00AM 48.9633 2.1461 226° Southwest 269 310 8,000 2,520 Climbing FlightAware ADS-B
10:01AM 48.9595 2.1412 220° Southwest 271 312 8,100 1,680 Climbing FlightAware ADS-B
10:01AM 48.9563 2.1380 213° Southwest 273 314 8,200 1,680 Climbing FlightAware ADS-B
10:01AM 48.9518 2.1344 207° Southwest 276 318 8,300 2,220 Climbing FlightAware ADS-B
10:01AM 48.9471 2.1316 202° Southwest 278 320 8,500 2,100 Climbing FlightAware ADS-B
10:01AM 48.9272 2.1222 197° South 284 327 9,000 2,280 Climbing FlightAware ADS-B
10:01AM 48.9084 2.1135 197° South 284 327 9,700 2,400 Climbing FlightAware ADS-B
10:02AM 48.8689 2.0949 197° South 290 334 10,800 2,220 Climbing FlightAware ADS-B
10:02AM 48.8135 2.0687 197° South 292 336 12,500 480 Climbing FlightAware ADS-B
10:03AM 48.7804 2.0545 197° South 322 371 11,400 -1,020 Descending FlightAware UK
10:03AM 48.7553 2.0414 199° South 334 384 11,800 4,680 Climbing FlightAware UK
10:03AM 48.7423 2.0353 199° South 326 375 13,600 1,800 Climbing FlightAware ADS-B
10:04AM 48.7126 2.0238 199° South 342 394 12,700 1,920 Descending FlightAware UK
10:04AM 48.6971 2.0142 199° South 334 384 14,600 1,800 Climbing FlightAware ADS-B
10:04AM 48.6483 1.9960 199° South 352 405 14,000 1,740 Descending FlightAware UK
10:05AM 48.6270 2.0100 199° South 347 399 16,100 2,160 Climbing FlightAware
10:05AM 48.5929 2.0328 199° South 356 410 15,300 1,800 Descending FlightAware UK
10:05AM 48.5690 2.0410 199° South 351 404 17,300 3,540 Climbing FlightAware
10:06AM 48.5460 2.0370 187° South 345 397 17,900 1,800 Climbing FlightAware
10:06AM 48.4840 2.0160 193° South 351 404 19,100 1,740 Climbing FlightAware
10:07AM 48.4250 2.0000 190° South 358 412 20,100 1,740 Climbing FlightAware
10:08AM 48.3140 1.9700 190° South 368 423 22,000 1,260 Climbing FlightAware
10:09AM 48.2440 1.9510 190° South 393 452 22,400 900 Climbing FlightAware
10:09AM 48.1640 1.9300 190° South 406 467 23,300 1,260 Climbing FlightAware
10:10AM 48.0890 1.9100 190° South 415 478 24,200 1,920 Climbing FlightAware
10:11AM 48.0180 1.8910 190° South 397 457 25,900 1,680 Climbing FlightAware
10:11AM 47.9530 1.8740 190° South 410 472 26,300 1,380 Climbing FlightAware
10:12AM 47.8630 1.8500 190° South 399 459 27,900 1,620 Climbing FlightAware
10:13AM 47.7800 1.8280 190° South 399 459 28,900 900 Climbing FlightAware
10:14AM 47.6980 1.8060 190° South 417 480 29,200 300 Climbing FlightAware
10:14AM 47.6380 1.7910 190° South 429 494 29,300 240 Climbing FlightAware
10:15AM 47.5350 1.7640 190° South 452 520 29,600 360 Climbing FlightAware
10:16AM 47.4490 1.7410 190° South 467 537 29,900 360 Climbing FlightAware
10:16AM 47.3490 1.7160 190° South 475 547 30,100 300 Climbing FlightAware
10:17AM 47.2510 1.6900 190° South 488 562 30,400 1,320 Climbing FlightAware
10:18AM 47.1550 1.6650 190° South 476 548 32,000 1,980 Climbing FlightAware
10:18AM 47.0850 1.6470 190° South 460 529 32,900 600 Climbing FlightAware
10:19AM 46.9510 1.6130 190° South 473 544 33,000  Climbing FlightAware
10:20AM 46.8410 1.5850 190° South 473 544 33,000  Level FlightAware
10:21AM 46.7510 1.5620 190° South 473 544 33,000  Level FlightAware
10:22AM 46.6440 1.5350 190° South 473 544 33,000  Level FlightAware
10:22AM 46.5520 1.5120 190° South 474 545 33,000  Level FlightAware
10:23AM 46.4380 1.4830 190° South 475 547 33,000  Level FlightAware
10:24AM 46.3300 1.4560 190° South 476 548 33,000  Level FlightAware
10:25AM 46.2590 1.4390 189° South 476 548 33,000  Level FlightAware
10:25AM 46.1600 1.4140 190° South 484 557 33,000  Level FlightAware
10:26AM 46.0630 1.3900 190° South 486 559 33,000  Level FlightAware
10:27AM 45.9310 1.3580 190° South 487 560 33,000  Level FlightAware
10:28AM 45.8560 1.3410 189° South 487 560 33,000  Level FlightAware
10:29AM 45.7300 1.3090 190° South 486 559 33,000  Level FlightAware
10:29AM 45.6140 1.2800 190° South 488 562 33,000  Level FlightAware
10:30AM 45.5300 1.2590 190° South 489 563 33,000  Level FlightAware
10:31AM 45.4380 1.2370 190° South 489 563 33,000  Level FlightAware
10:32AM 45.3420 1.2140 190° South 488 562 33,000  Level FlightAware
10:32AM 45.2400 1.1880 190° South 487 560 33,000  Level FlightAware
10:33AM 45.1520 1.1650 190° South 489 563 33,000  Level FlightAware
10:34AM 45.0650 1.1420 191° South 490 564 33,000  Level FlightAware
10:34AM 44.9640 1.1160 190° South 491 565 33,000  Level FlightAware
10:35AM 44.8860 1.0970 190° South 490 564 33,000  Level FlightAware
10:36AM 44.7660 1.0660 190° South 489 563 33,000  Level FlightAware
10:36AM 44.6810 1.0450 190° South 489 563 33,000  Level FlightAware
10:37AM 44.5760 1.0180 190° South 495 570 33,000  Level FlightAware
10:38AM 44.4870 0.9960 190° South 503 579 33,000  Level FlightAware
10:39AM 44.3860 0.9710 190° South 502 578 33,000  Level FlightAware
10:39AM 44.2950 0.9480 190° South 500 575 33,000  Level FlightAware
10:40AM 44.2040 0.9250 190° South 499 574 33,000  Level FlightAware
10:41AM 44.1080 0.9010 190° South 500 575 33,000  Level FlightAware
10:41AM 44.0060 0.8760 190° South 501 577 33,000  Level FlightAware
10:42AM 43.9170 0.8540 190° South 499 574 33,000  Level FlightAware
10:43AM 43.8170 0.8290 190° South 498 573 33,000  Level FlightAware
10:43AM 43.7260 0.8070 190° South 499 574 33,000  Level FlightAware
10:44AM 43.6210 0.7810 190° South 499 574 33,000  Level FlightAware
10:45AM 43.5300 0.7590 190° South 498 573 33,000  Level FlightAware
10:46AM 43.4400 0.7370 190° South 498 573 33,000  Level FlightAware
10:46AM 43.3400 0.7130 190° South 498 573 33,000  Level FlightAware
10:47AM 43.2510 0.6920 190° South 498 573 33,000  Level FlightAware
10:48AM 43.1450 0.6660 190° South 498 573 33,000  Level FlightAware
10:48AM 43.0540 0.6440 190° South 497 572 33,000  Level FlightAware
10:49AM 42.9630 0.6230 190° South 497 572 33,000  Level FlightAware
10:50AM 42.8620 0.5980 190° South 494 568 33,000  Level FlightAware
10:50AM 42.7740 0.5780 189° South 493 567 33,000  Level FlightAware
10:51AM 42.6710 0.5530 190° South 492 566 33,000  Level FlightAware
10:52AM 42.5790 0.5290 191° South 493 567 33,000  Level FlightAware
10:52AM 42.5140 0.5120 191° South 493 567 33,000  Level FlightAware
10:53AM 42.3900 0.4810 190° South 494 568 33,000 300 Level FlightAware
10:54AM 42.3030 0.4580 191° South 493 567 33,500 1,080 Climbing FlightAware
10:55AM 42.2110 0.4350 190° South 483 556 34,500 1,020 Climbing FlightAware
10:55AM 42.1130 0.4100 191° South 481 554 35,000 300 Climbing FlightAware
10:56AM 42.0260 0.3880 191° South 479 551 35,000  Level FlightAware
10:57AM 41.9280 0.3630 191° South 479 551 35,000  Level FlightAware
10:57AM 41.8410 0.3420 190° South 479 551 35,000  Level FlightAware
10:58AM 41.7450 0.3180 191° South 480 552 35,000  Level FlightAware
10:59AM 41.6550 0.2950 191° South 480 552 35,000  Level FlightAware
11:00AM 41.5700 0.2740 190° South 482 555 35,000  Level FlightAware
11:00AM 41.4710 0.2500 190° South 482 555 35,000  Level FlightAware
11:01AM 41.3840 0.2280 191° South 484 557 35,000  Level FlightAware
11:02AM 41.2960 0.2060 191° South 484 557 35,000  Level FlightAware
11:02AM 41.1940 0.1810 190° South 482 555 35,000  Level FlightAware
11:03AM 41.1080 0.1560 192° South 478 550 35,000  Level FlightAware
11:04AM 41.0150 0.1190 197° South 475 547 35,000  Level FlightAware
11:04AM 40.9310 0.0850 197° South 474 545 35,000  Level FlightAware
11:05AM 40.8450 0.0500 197° South 474 545 35,000  Level FlightAware
11:06AM 40.7480 0.0120 197° South 475 547 35,000  Level FlightAware
11:07AM 40.6660 -0.0210 197° South 473 544 35,000  Level FlightAware
11:07AM 40.5740 -0.0580 197° South 473 544 35,000  Level FlightAware
11:08AM 40.4900 -0.0910 197° South 470 541 35,000  Level FlightAware
11:09AM 40.4050 -0.1240 196° South 468 539 35,000  Level FlightAware
11:09AM 40.3160 -0.1600 197° South 471 542 35,000  Level FlightAware
11:10AM 40.2280 -0.1940 196° South 472 543 35,000  Level FlightAware
11:11AM 40.1340 -0.2310 197° South 471 542 35,000  Level FlightAware
11:11AM 40.0530 -0.2630 197° South 466 536 35,000  Level FlightAware
11:12AM 39.9680 -0.2960 197° South 465 535 35,000  Level FlightAware
11:13AM 39.8940 -0.3250 197° South 468 539 35,000  Level FlightAware
11:13AM 39.8040 -0.3600 197° South 475 547 35,000  Level FlightAware
11:14AM 39.7200 -0.3930 197° South 472 543 35,000  Level FlightAware
11:15AM 39.6360 -0.4250 196° South 472 543 35,000  Level FlightAware
11:16AM 39.5380 -0.4590 195° South 480 552 35,000  Level FlightAware
11:16AM 39.4470 -0.4690 185° South 491 565 35,000  Level FlightAware
11:17AM 39.3490 -0.4580 175° South 495 570 35,000  Level FlightAware
11:18AM 39.2560 -0.4420 172° South 495 570 35,000  Level FlightAware
11:18AM 39.1650 -0.4250 172° South 496 571 35,000  Level FlightAware
11:19AM 39.0760 -0.4090 172° South 498 573 35,000  Level FlightAware
11:20AM 38.9870 -0.3930 172° South 497 572 35,000  Level FlightAware
11:20AM 38.8680 -0.3720 172° South 495 570 35,000  Level FlightAware
11:21AM 38.7750 -0.3560 172° South 493 567 35,000  Level FlightAware
11:22AM 38.6760 -0.3380 172° South 490 564 35,000  Level FlightAware
11:23AM 38.5910 -0.3220 172° South 494 568 35,000  Level FlightAware
11:23AM 38.4980 -0.3060 172° South 494 568 35,000  Level FlightAware
11:24AM 38.4010 -0.2890 172° South 492 566 35,000  Level FlightAware
11:25AM 38.3040 -0.2720 172° South 483 556 35,000  Level FlightAware
11:25AM 38.2230 -0.2570 172° South 490 564 35,000  Level FlightAware
11:26AM 38.1130 -0.2380 172° South 483 556 35,000  Level FlightAware
11:27AM 37.9550 -0.2100 172° South 489 563 35,000  Level FlightAware
11:28AM 37.7980 -0.1830 172° South 489 563 35,000  Level FlightAware
11:30AM 37.6410 -0.1550 172° South 490 564 35,000  Level FlightAware
11:31AM 37.4860 -0.1290 172° South 490 564 35,000  Level FlightAware
11:32AM 37.3280 -0.1010 172° South 484 557 35,000  Level FlightAware
11:33AM 37.1700 -0.0740 172° South 486 559 35,000 120 Level FlightAware
11:35AM 36.9510 -0.0220 169° South 503 579 35,400 420 Climbing FlightAware
11:35AM 36.8850 0.0020 164° South 484 557 36,000 420 Climbing FlightAware
11:36AM 36.7750 0.0400 165° South 489 563 36,000  Level FlightAware
11:37AM 36.6950 0.0680 164° South 488 562 36,000  Level FlightAware
11:37AM 36.5870 0.1060 164° South 489 563 36,000  Level FlightAware
11:38AM 36.4670 0.1480 164° South 497 572 36,000  Level FlightAware
11:39AM 36.3740 0.1810 164° South 489 563 36,000  Level FlightAware
11:40AM 36.2840 0.2120 164° South 487 560 36,000  Level FlightAware
11:40AM 36.2120 0.2380 164° South 487 560 36,000  Level FlightAware
11:41AM 36.1090 0.2730 165° South 486 559 36,000  Level FlightAware
11:42AM 36.2310 0.2310 344° North 496 571 36,000  Level FlightAware
11:42AM 35.9260 0.3360 164° South 488 562 36,000  Level FlightAware
11:43AM 35.8180 0.3730 164° South 487 560 36,000  Level FlightAware
11:44AM 35.7390 0.4000 164° South 488 562 36,000  Level FlightAware
11:45AM 35.6430 0.4330 164° South 481 554 36,000  Level FlightAware
11:45AM 35.5580 0.4620 164° South 482 555 36,000  Level FlightAware
11:46AM 35.4550 0.4970 165° South 483 556 36,000  Level FlightAware
11:47AM 35.3240 0.5420 164° South 483 556 36,000  Level FlightAware
11:48AM 35.2230 0.5770 164° South 483 556 36,000  Level FlightAware
11:49AM 35.1500 0.6030 164° South 483 556 36,000  Level FlightAware
11:49AM 35.0770 0.6280 164° South 483 556 36,000  Level FlightAware
11:50AM 34.9850 0.6600 164° South 483 556 36,000  Level FlightAware
11:51AM 34.8500 0.7030 165° South 496 571 36,000  Level FlightAware
11:51AM 34.7520 0.7360 165° South 499 574 36,000  Level FlightAware
11:52AM 34.6760 0.7620 164° South 499 574 36,000  Level FlightAware
11:53AM 34.6010 0.7880 164° South 499 574 36,000  Level FlightAware
11:54AM 34.5070 0.8210 164° South 499 574 36,000  Level FlightAware
11:54AM 34.4310 0.8470 164° South 499 574 36,000  Level FlightAware
11:55AM 34.3560 0.8730 164° South 499 574 36,000  Level FlightAware
11:56AM 34.2800 0.9000 164° South 499 574 36,000  Level FlightAware
11:56AM 34.1000 0.9520 167° South 483 556 36,000  Level FlightAware
11:57AM 34.0260 0.9780 164° South 483 556 36,000  Level FlightAware
11:58AM 33.9530 1.0030 164° South 483 556 36,000  Level FlightAware
11:58AM 33.8800 1.0280 164° South 483 556 36,000  Level FlightAware
11:59AM 33.7890 1.0600 164° South 483 556 36,000  Level FlightAware
12:00PM 33.7160 1.0850 164° South 483 556 36,000  Level FlightAware
12:01PM 33.6430 1.1100 164° South 483 556 36,000  Level FlightAware
12:01PM 33.5700 1.1350 164° South 483 556 36,000  Level FlightAware
12:02PM 33.4970 1.1600 164° South 483 556 36,000  Level FlightAware
12:03PM 33.4060 1.1920 164° South 483 556 36,000  Level FlightAware
12:03PM 33.3330 1.2170 164° South 483 556 36,000  Level FlightAware
12:04PM 33.2600 1.2420 164° South 483 556 36,000  Level FlightAware
12:05PM 33.1870 1.2670 164° South 483 556 36,000  Level FlightAware
12:05PM 33.1140 1.2920 164° South 483 556 36,000  Level FlightAware
12:08PM 32.8665 1.3053 177° South  Level Estimated
12:09PM 32.7505 1.3115 177° South  Level Estimated
12:10PM 32.6345 1.3176 177° South  Level Estimated
12:11PM 32.5184 1.3238 177° South  Level Estimated
12:12PM 32.4024 1.3300 177° South  Level Estimated
12:13PM 32.2864 1.3361 177° South  Level Estimated
12:14PM 32.1704 1.3422 177° South  Level Estimated
12:15PM 32.0544 1.3483 177° South  Level Estimated
12:16PM 31.9383 1.3544 177° South  Level Estimated
12:17PM 31.8223 1.3605 177° South  Level Estimated
12:18PM 31.7063 1.3665 177° South  Level Estimated
12:19PM 31.5903 1.3726 177° South  Level Estimated
12:20PM 31.4743 1.3786 177° South  Level Estimated
12:21PM 31.3582 1.3846 177° South  Level Estimated
12:22PM 31.2422 1.3906 177° South  Level Estimated
12:23PM 31.1262 1.3966 177° South  Level Estimated
12:24PM 31.0102 1.4026 177° South  Level Estimated
12:25PM 30.8942 1.4085 177° South  Level Estimated
12:26PM 30.7781 1.4145 177° South  Level Estimated
12:27PM 30.6621 1.4204 177° South  Level Estimated
12:28PM 30.5461 1.4263 177° South  Level Estimated
12:29PM 30.4301 1.4322 177° South  Level Estimated
12:30PM 30.3141 1.4381 177° South  Level Estimated
12:31PM 30.1980 1.4439 177° South  Level Estimated
12:32PM 30.0820 1.4498 178° South  Level Estimated
12:33PM 29.9660 1.4556 178° South  Level Estimated
12:34PM 29.8500 1.4614 178° South  Level Estimated
12:35PM 29.7340 1.4672 178° South  Level Estimated
12:36PM 29.6179 1.4730 178° South  Level Estimated
12:37PM 29.5019 1.4788 178° South  Level Estimated
12:38PM 29.3859 1.4846 178° South  Level Estimated
12:39PM 29.2699 1.4904 178° South  Level Estimated
12:40PM 29.1538 1.4961 178° South  Level Estimated
12:41PM 29.0378 1.5019 178° South  Level Estimated
12:42PM 28.9218 1.5076 178° South  Level Estimated
12:43PM 28.8057 1.5133 178° South  Level Estimated
12:44PM 28.6897 1.5190 178° South  Level Estimated
12:45PM 28.5737 1.5246 178° South  Level Estimated
12:46PM 28.4576 1.5303 178° South  Level Estimated
12:47PM 28.3416 1.5360 178° South  Level Estimated
12:48PM 28.2256 1.5416 178° South  Level Estimated
12:49PM 28.1096 1.5473 178° South  Level Estimated
12:50PM 27.9935 1.5529 178° South  Level Estimated
12:51PM 27.8775 1.5585 178° South  Level Estimated
12:52PM 27.7615 1.5641 178° South  Level Estimated
12:53PM 27.6454 1.5697 178° South  Level Estimated
12:54PM 27.5294 1.5752 178° South  Level Estimated
12:55PM 27.4134 1.5808 178° South  Level Estimated
12:56PM 27.2973 1.5863 178° South  Level Estimated
12:57PM 27.1813 1.5919 178° South  Level Estimated
12:58PM 27.0653 1.5974 178° South  Level Estimated
12:59PM 26.9493 1.6029 178° South  Level Estimated
01:00PM 26.8332 1.6084 178° South  Level Estimated
01:01PM 26.7172 1.6139 178° South  Level Estimated
01:02PM 26.6012 1.6194 178° South  Level Estimated
01:03PM 26.4851 1.6249 178° South  Level Estimated
01:04PM 26.3691 1.6303 178° South  Level Estimated
01:05PM 26.2531 1.6358 178° South  Level Estimated
01:06PM 26.1371 1.6412 178° South  Level Estimated
01:07PM 26.0210 1.6466 178° South  Level Estimated
01:08PM 25.9050 1.6521 178° South  Level Estimated
01:09PM 25.7890 1.6575 178° South  Level Estimated
01:10PM 25.6729 1.6629 178° South  Level Estimated
01:11PM 25.5569 1.6682 178° South  Level Estimated
01:12PM 25.4409 1.6736 178° South  Level Estimated
01:13PM 25.3248 1.6790 178° South  Level Estimated
01:14PM 25.2088 1.6843 178° South  Level Estimated
01:15PM 25.0928 1.6897 178° South  Level Estimated
01:16PM 24.9767 1.6950 178° South  Level Estimated
01:17PM 24.8607 1.7003 178° South  Level Estimated
01:18PM 24.7447 1.7056 178° South  Level Estimated
01:19PM 24.6287 1.7109 178° South  Level Estimated
01:20PM 24.5126 1.7162 178° South  Level Estimated
01:21PM 24.3966 1.7215 178° South  Level Estimated
01:22PM 24.2806 1.7268 178° South  Level Estimated
01:23PM 24.1645 1.7320 178° South  Level Estimated
01:24PM 24.0485 1.7373 178° South  Level Estimated
01:25PM 23.9325 1.7425 178° South  Level Estimated
01:26PM 23.8164 1.7477 178° South  Level Estimated
01:27PM 23.7004 1.7530 178° South  Level Estimated
01:28PM 23.5844 1.7582 178° South  Level Estimated
01:29PM 23.4683 1.7634 178° South  Level Estimated
01:30PM 23.3523 1.7686 178° South  Level Estimated
01:31PM 23.2362 1.7738 178° South  Level Estimated
01:32PM 23.1202 1.7790 178° South  Level Estimated
01:33PM 23.0042 1.7841 178° South  Level Estimated
01:34PM 22.8881 1.7893 178° South  Level Estimated
01:35PM 22.7721 1.7945 178° South  Level Estimated
01:36PM 22.6560 1.7996 178° South  Level Estimated
01:37PM 22.5400 1.8047 178° South  Level Estimated
01:38PM 22.4240 1.8099 178° South  Level Estimated
01:39PM 22.3079 1.8150 178° South  Level Estimated
01:40PM 22.1919 1.8201 178° South  Level Estimated
01:41PM 22.0758 1.8252 178° South  Level Estimated
01:42PM 21.9598 1.8303 178° South  Level Estimated
01:43PM 21.8438 1.8354 178° South  Level Estimated
01:44PM 21.7277 1.8405 178° South  Level Estimated
01:45PM 21.6117 1.8455 178° South  Level Estimated
01:46PM 21.4956 1.8506 178° South  Level Estimated
01:47PM 21.3796 1.8556 178° South  Level Estimated
01:48PM 21.2635 1.8607 178° South  Level Estimated
01:49PM 21.1475 1.8657 178° South  Level Estimated
01:50PM 21.0315 1.8707 178° South  Level Estimated
01:51PM 20.9154 1.8758 178° South  Level Estimated
01:52PM 20.7994 1.8808 178° South  Level Estimated
01:53PM 20.6833 1.8858 178° South  Level Estimated
01:54PM 20.5673 1.8908 178° South  Level Estimated
01:55PM 20.4513 1.8958 178° South  Level Estimated
01:56PM 20.3352 1.9008 178° South  Level Estimated
01:57PM 20.2192 1.9057 178° South  Level Estimated
01:58PM 20.1031 1.9107 178° South  Level Estimated
01:59PM 19.9871 1.9157 178° South  Level Estimated
02:00PM 19.8711 1.9206 178° South  Level Estimated
02:01PM 19.7550 1.9256 178° South  Level Estimated
02:02PM 19.6390 1.9305 178° South  Level Estimated
02:03PM 19.5229 1.9354 178° South  Level Estimated
02:04PM 19.4069 1.9404 178° South  Level Estimated
02:05PM 19.2909 1.9453 178° South  Level Estimated
02:06PM 19.1748 1.9502 178° South  Level Estimated
02:07PM 19.0588 1.9551 178° South  Level Estimated
02:08PM 18.9428 1.9600 178° South  Level Estimated
02:09PM 18.8267 1.9649 178° South  Level Estimated
02:10PM 18.7107 1.9698 178° South  Level Estimated
02:11PM 18.5946 1.9746 178° South  Level Estimated
02:12PM 18.4786 1.9795 178° South  Level Estimated
02:13PM 18.3626 1.9844 178° South  Level Estimated
02:14PM 18.2465 1.9892 178° South  Level Estimated
02:15PM 18.1305 1.9941 178° South  Level Estimated
02:16PM 18.0144 1.9989 178° South  Level Estimated
02:17PM 17.8984 2.0038 178° South  Level Estimated
02:18PM 17.7824 2.0086 178° South  Level Estimated
02:19PM 17.6663 2.0134 178° South  Level Estimated
02:20PM 17.5503 2.0182 178° South  Level Estimated
02:21PM 17.4342 2.0230 178° South  Level Estimated
02:22PM 17.3182 2.0278 178° South  Level Estimated
02:23PM 17.2022 2.0326 178° South  Level Estimated
02:24PM 17.0861 2.0374 178° South  Level Estimated
02:25PM 16.9701 2.0422 178° South  Level Estimated
02:26PM 16.8540 2.0470 178° South  Level Estimated
02:27PM 16.7380 2.0518 178° South  Level Estimated
02:28PM 16.6220 2.0566 178° South  Level Estimated
02:29PM 16.5059 2.0613 178° South  Level Estimated
02:30PM 16.3899 2.0661 178° South  Level Estimated
02:31PM 16.2738 2.0708 178° South  Level Estimated
02:32PM 16.1578 2.0756 178° South  Level Estimated
02:33PM 16.0417 2.0803 178° South  Level Estimated
02:34PM 15.9257 2.0851 178° South  Level Estimated
02:35PM 15.8097 2.0898 178° South  Level Estimated
02:36PM 15.6936 2.0945 178° South  Level Estimated
02:37PM 15.5776 2.0992 178° South  Level Estimated
02:38PM 15.4615 2.1039 178° South  Level Estimated
02:39PM 15.3470 2.1086 178° South  Level Estimated
02:40PM 15.2324 2.1132 178° South  Level Estimated
02:41PM 15.1179 2.1179 178° South  Level Estimated
02:42PM 15.0033 2.1225 178° South  Level Estimated
02:43PM 14.8888 2.1271 178° South  Level Estimated
02:44PM 14.7742 2.1318 178° South  Level Estimated
02:45PM 14.6597 2.1364 178° South  Level Estimated
02:46PM 14.5451 2.1410 178° South  Level Estimated
02:47PM 14.4306 2.1456 178° South  Level Estimated
02:48PM 14.3160 2.1502 178° South  Level Estimated
02:49PM 14.2015 2.1548 178° South  Level Estimated
02:50PM 14.0869 2.1594 178° South  Level Estimated
02:51PM 13.9724 2.1640 178° South  Level Estimated
02:52PM 13.8578 2.1686 178° South  Level Estimated
02:53PM 13.7433 2.1732 178° South  Level Estimated